createdAt,value
2022-12-08T00:02:21.772Z,7.15
2022-12-08T00:05:42.901Z,7.05
2022-12-08T00:09:04.081Z,7.03
2022-12-08T00:12:07.819Z,6.90
2022-12-08T00:15:10.368Z,7.40
2022-12-08T00:18:12.742Z,6.63
2022-12-08T00:21:15.129Z,7.03
2022-12-08T00:24:18.325Z,6.30
2022-12-08T00:27:20.566Z,6.90
2022-12-08T00:30:22.856Z,7.22
2022-12-08T00:33:25.506Z,7.13
2022-12-08T00:36:27.932Z,6.75
2022-12-08T00:39:30.274Z,7.38
2022-12-08T00:42:32.597Z,6.78
2022-12-08T00:45:34.934Z,7.32
2022-12-08T00:48:37.324Z,8.60
2022-12-08T00:51:39.607Z,6.97
2022-12-08T00:54:41.992Z,7.22
2022-12-08T00:57:44.393Z,7.78
2022-12-08T01:00:47.651Z,7.45
2022-12-08T01:03:50.154Z,6.45
2022-12-08T01:06:52.551Z,7.00
2022-12-08T01:09:54.907Z,6.70
2022-12-08T01:12:57.832Z,7.72
2022-12-08T01:16:00.512Z,7.00
2022-12-08T01:19:03.915Z,7.80
2022-12-08T01:22:06.201Z,7.18
2022-12-08T01:25:09.005Z,6.70
2022-12-08T01:28:11.319Z,6.82
2022-12-08T01:31:18.906Z,7.68
2022-12-08T01:34:21.293Z,6.80
2022-12-08T01:37:23.601Z,7.65
2022-12-08T01:40:25.926Z,6.60
2022-12-08T01:43:52.357Z,6.85
2022-12-08T01:46:55.105Z,6.85
2022-12-08T01:49:57.522Z,7.32
2022-12-08T01:53:09.402Z,6.97
2022-12-08T01:56:16.635Z,6.55
2022-12-08T01:59:19.595Z,7.25
2022-12-08T02:02:32.867Z,6.47
2022-12-08T02:05:37.920Z,6.18
2022-12-08T02:08:42.365Z,6.53
2022-12-08T02:11:44.644Z,6.55
2022-12-08T02:14:47.140Z,6.00
2022-12-08T02:18:09.836Z,6.35
2022-12-08T02:21:14.865Z,7.07
2022-12-08T02:24:38.761Z,6.15
2022-12-08T02:28:04.076Z,6.15
2022-12-08T02:31:18.621Z,6.55
2022-12-08T02:34:35.868Z,6.82
2022-12-08T02:38:09.536Z,6.93
2022-12-08T02:41:39.523Z,6.00
2022-12-08T02:44:59.510Z,7.05
2022-12-08T02:48:01.836Z,7.40
2022-12-08T02:51:04.965Z,7.28
2022-12-08T02:54:07.405Z,7.93
2022-12-08T02:57:12.446Z,6.95
2022-12-08T03:00:17.460Z,6.32
2022-12-08T03:03:46.204Z,6.78
2022-12-08T03:06:57.596Z,6.30
2022-12-08T03:10:11.509Z,7.10
2022-12-08T03:13:16.775Z,6.85
2022-12-08T03:16:27.467Z,7.00
2022-12-08T03:19:34.762Z,7.03
2022-12-08T03:22:38.329Z,6.75
2022-12-08T03:25:54.223Z,7.20
2022-12-08T03:28:57.070Z,7.63
2022-12-08T03:32:12.214Z,5.77
2022-12-08T03:35:16.839Z,7.70
2022-12-08T03:38:19.158Z,7.82
2022-12-08T03:41:23.067Z,7.90
2022-12-08T03:47:27.699Z,8.27
2022-12-08T03:50:30.116Z,8.43
2022-12-08T03:53:32.540Z,7.45
2022-12-08T03:56:37.771Z,8.38
2022-12-08T03:59:40.245Z,7.32
2022-12-08T04:02:42.642Z,6.75
2022-12-08T04:05:44.988Z,6.47
2022-12-08T04:08:47.608Z,7.43
2022-12-08T04:11:50.004Z,5.38
2022-12-08T04:14:52.330Z,5.63
2022-12-08T04:17:54.573Z,6.38
2022-12-08T04:20:56.909Z,5.72
2022-12-08T04:24:01.292Z,4.72
2022-12-08T04:27:04.034Z,5.20
2022-12-08T04:30:07.535Z,5.65
2022-12-08T04:33:10.032Z,5.20
2022-12-08T04:36:12.522Z,5.00
2022-12-08T04:39:14.809Z,5.22
2022-12-08T04:42:17.192Z,4.75
2022-12-08T04:45:19.662Z,5.15
2022-12-08T04:48:22.026Z,4.90
2022-12-08T04:51:24.452Z,4.38
2022-12-08T04:54:27.155Z,5.18
2022-12-08T04:57:29.551Z,5.15
2022-12-08T05:00:31.932Z,5.90
2022-12-08T05:03:34.227Z,4.47
2022-12-08T05:06:36.569Z,4.90
2022-12-08T05:09:38.802Z,4.07
2022-12-08T05:12:41.163Z,5.35
2022-12-08T05:15:43.568Z,4.22
2022-12-08T05:18:46.011Z,7.10
2022-12-08T05:21:48.374Z,9.30
2022-12-08T05:24:50.720Z,8.75
2022-12-08T05:28:01.669Z,8.18
2022-12-08T05:31:15.180Z,15.00
2022-12-08T05:34:17.630Z,13.57
2022-12-08T05:37:20.072Z,7.32
2022-12-08T05:40:22.408Z,11.10
2022-12-08T05:43:25.043Z,5.55
2022-12-08T05:46:27.412Z,5.70
2022-12-08T05:49:29.871Z,5.82
2022-12-08T05:52:33.074Z,6.82
2022-12-08T05:55:35.398Z,6.03
2022-12-08T05:58:37.749Z,5.18
2022-12-08T06:01:40.162Z,6.32
2022-12-08T06:04:42.785Z,7.00
2022-12-08T06:07:45.211Z,6.38
2022-12-08T06:10:47.605Z,5.00
2022-12-08T06:13:50.548Z,6.45
2022-12-08T06:16:53.011Z,5.90
2022-12-08T06:19:55.384Z,17.90
2022-12-08T06:22:57.720Z,14.43
2022-12-08T06:26:04.191Z,11.70
2022-12-08T06:29:06.556Z,11.55
2022-12-08T06:32:09.013Z,14.32
2022-12-08T06:35:11.512Z,12.20
2022-12-08T06:38:13.807Z,11.82
2022-12-08T06:41:16.402Z,12.60
2022-12-08T06:44:18.784Z,12.98
2022-12-08T06:47:26.375Z,72.57
2022-12-08T06:50:29.075Z,9.00
2022-12-08T06:53:31.386Z,10.00
2022-12-08T06:56:33.652Z,9.52
2022-12-08T06:59:35.973Z,9.23
2022-12-08T07:02:38.515Z,9.07
2022-12-08T07:05:40.983Z,9.35
2022-12-08T07:08:43.427Z,9.13
2022-12-08T07:11:45.738Z,10.95
2022-12-08T07:14:48.014Z,8.90
2022-12-08T07:17:54.895Z,12.18
2022-12-08T07:21:11.394Z,11.30
2022-12-08T07:24:14.029Z,12.05
2022-12-08T07:27:16.456Z,9.23
2022-12-08T07:30:18.906Z,7.40
2022-12-08T07:33:21.129Z,11.73
2022-12-08T07:36:23.744Z,13.50
2022-12-08T07:39:26.121Z,10.30
2022-12-08T07:42:28.492Z,12.25
2022-12-08T07:45:31.808Z,12.55
2022-12-08T07:48:34.385Z,14.63
2022-12-08T07:51:36.764Z,10.27
2022-12-08T07:54:39.135Z,7.63
2022-12-08T07:57:41.548Z,9.77
2022-12-08T08:00:43.855Z,10.65
2022-12-08T08:03:46.242Z,11.02
2022-12-08T08:06:48.636Z,8.73
2022-12-08T08:09:50.907Z,12.45
2022-12-08T08:12:53.273Z,9.45
2022-12-08T08:15:55.621Z,10.80
2022-12-08T08:18:58.044Z,10.90
2022-12-08T08:22:00.492Z,10.13
2022-12-08T08:25:02.767Z,12.80
2022-12-08T08:28:05.125Z,8.60
2022-12-08T08:31:07.558Z,8.85
2022-12-08T08:34:09.855Z,11.05
2022-12-08T08:37:12.460Z,9.75
2022-12-08T08:40:15.061Z,9.82
2022-12-08T08:43:34.465Z,12.02
2022-12-08T08:46:40.036Z,9.23
2022-12-08T08:49:42.464Z,10.13
2022-12-08T08:52:45.307Z,9.48
2022-12-08T08:55:47.973Z,8.98
2022-12-08T08:58:52.645Z,10.48
2022-12-08T09:04:58.378Z,14.45
2022-12-08T09:08:00.886Z,9.63
2022-12-08T09:11:04.357Z,12.45
2022-12-08T09:14:07.294Z,8.50
2022-12-08T09:17:09.872Z,11.05
2022-12-08T09:20:12.335Z,12.15
2022-12-08T09:23:15.451Z,8.20
2022-12-08T09:26:17.815Z,6.95
2022-12-08T09:29:20.308Z,25.38
2022-12-08T09:32:22.641Z,13.85
2022-12-08T09:35:24.950Z,17.10
2022-12-08T09:38:28.484Z,23.13
2022-12-08T09:41:40.245Z,16.92
2022-12-08T09:44:57.485Z,15.55
2022-12-08T09:48:25.071Z,21.67
2022-12-08T09:51:33.021Z,23.13
2022-12-08T09:54:36.380Z,19.08
2022-12-08T09:57:38.764Z,22.50
2022-12-08T10:00:41.030Z,22.85
2022-12-08T10:03:43.805Z,29.23
2022-12-08T10:10:07.271Z,24.65
2022-12-08T10:13:23.063Z,20.40
2022-12-08T10:16:40.111Z,29.85
2022-12-08T10:19:43.216Z,21.83
2022-12-08T10:22:47.719Z,14.00
2022-12-08T10:25:56.730Z,22.27
2022-12-08T10:29:01.509Z,19.23
2022-12-08T10:32:13.306Z,17.73
2022-12-08T10:35:17.394Z,27.50
2022-12-08T10:38:33.931Z,21.13
2022-12-08T10:41:37.669Z,17.98
2022-12-08T10:44:56.413Z,62.45
2022-12-08T10:48:07.021Z,27.63
2022-12-08T10:51:23.316Z,16.83
2022-12-08T10:54:38.437Z,15.40
2022-12-08T10:57:40.739Z,17.02
2022-12-08T11:00:43.227Z,15.27
2022-12-08T11:03:47.243Z,16.08
2022-12-08T11:06:51.061Z,18.80
2022-12-08T11:13:07.273Z,15.80
2022-12-08T11:16:13.473Z,13.82
2022-12-08T11:19:20.419Z,19.17
2022-12-08T11:22:36.346Z,13.63
2022-12-08T11:25:38.850Z,15.38
2022-12-08T11:28:41.155Z,15.07
2022-12-08T11:32:12.391Z,17.50
2022-12-08T11:35:27.982Z,15.40
2022-12-08T11:38:30.795Z,17.63
2022-12-08T11:41:38.532Z,18.77
2022-12-08T11:44:51.245Z,21.38
2022-12-08T11:48:16.270Z,18.02
2022-12-08T11:51:35.465Z,16.73
2022-12-08T11:54:45.813Z,17.77
2022-12-08T11:57:49.457Z,21.15
2022-12-08T12:00:51.855Z,22.45
2022-12-08T12:04:15.802Z,21.02
2022-12-08T12:07:42.226Z,23.90
2022-12-08T12:11:02.649Z,19.52
2022-12-08T12:14:19.793Z,17.85
2022-12-08T12:17:46.202Z,17.80
2022-12-08T12:21:10.314Z,18.70
2022-12-08T12:24:35.726Z,18.70
2022-12-08T12:27:40.432Z,20.20
2022-12-08T12:30:59.975Z,18.52
2022-12-08T12:34:11.647Z,22.60
2022-12-08T12:37:17.393Z,18.77
2022-12-08T12:40:22.250Z,21.95
2022-12-08T12:43:34.310Z,26.05
2022-12-08T12:46:53.951Z,22.15
2022-12-08T12:50:06.828Z,23.58
2022-12-08T12:53:18.337Z,20.95
2022-12-08T12:56:51.642Z,66.82
2022-12-08T12:59:55.853Z,54.30
2022-12-08T13:03:15.110Z,40.83
2022-12-08T13:06:26.908Z,32.45
2022-12-08T13:09:30.531Z,50.92
2022-12-08T13:12:32.819Z,51.08
2022-12-08T13:15:40.105Z,66.78
2022-12-08T13:18:53.251Z,37.05
2022-12-08T13:21:55.761Z,28.95
2022-12-08T13:25:53.614Z,29.00
2022-12-08T13:29:03.666Z,34.78
2022-12-08T13:32:08.831Z,37.35
2022-12-08T13:35:12.548Z,38.40
2022-12-08T13:38:18.445Z,29.17
2022-12-08T13:41:23.791Z,29.50
2022-12-08T13:45:18.682Z,29.02
2022-12-08T13:48:58.984Z,32.35
2022-12-08T13:56:30.709Z,34.92
2022-12-08T13:58:36.744Z,33.65
2022-12-08T14:01:46.824Z,33.33
2022-12-08T14:08:58.915Z,33.13
2022-12-08T14:12:06.742Z,36.55
2022-12-08T14:15:12.239Z,32.88
2022-12-08T14:18:29.247Z,31.83
2022-12-08T14:21:36.058Z,32.63
2022-12-08T14:24:39.513Z,29.85
2022-12-08T14:27:42.076Z,22.93
2022-12-08T14:30:44.684Z,46.97
2022-12-08T14:33:51.785Z,37.97
2022-12-08T14:36:57.184Z,33.55
2022-12-08T14:40:03.913Z,41.92
2022-12-08T14:43:09.137Z,78.88
2022-12-08T14:46:23.543Z,33.00
2022-12-08T14:49:34.196Z,31.33
2022-12-08T14:52:43.722Z,31.73
2022-12-08T14:55:48.037Z,42.35
2022-12-08T14:59:03.282Z,29.35
2022-12-08T15:02:24.282Z,35.75
2022-12-08T15:05:30.177Z,33.17
2022-12-08T15:08:33.145Z,31.80
2022-12-08T15:11:36.314Z,24.75
2022-12-08T15:14:42.109Z,45.97
2022-12-08T15:17:50.097Z,94.05
2022-12-08T15:20:54.570Z,57.40
2022-12-08T15:23:56.851Z,136.63
2022-12-08T15:26:59.311Z,52.22
2022-12-08T15:30:01.663Z,44.25
2022-12-08T15:33:04.099Z,33.78
2022-12-08T15:36:06.770Z,83.50
2022-12-08T15:39:33.271Z,65.18
2022-12-08T15:42:35.655Z,39.13
2022-12-08T15:45:40.713Z,34.90
2022-12-08T15:48:47.191Z,34.17
2022-12-08T15:51:50.321Z,39.03
2022-12-08T15:54:52.686Z,32.22
2022-12-08T16:01:17.418Z,40.58
2022-12-08T16:05:11.685Z,36.75
2022-12-08T16:07:44.037Z,32.10
2022-12-08T16:11:29.283Z,32.13
2022-12-08T16:14:47.423Z,36.70
2022-12-08T16:17:32.744Z,35.78
2022-12-08T16:21:06.118Z,31.43
2022-12-08T16:23:57.363Z,31.75
2022-12-08T16:30:22.397Z,83.20
2022-12-08T16:33:24.719Z,98.80
2022-12-08T16:36:26.984Z,45.40
2022-12-08T16:39:29.351Z,36.28
2022-12-08T16:42:50.388Z,39.42
2022-12-08T16:45:52.992Z,36.15
2022-12-08T16:48:58.171Z,89.10
2022-12-08T16:52:00.440Z,54.53
2022-12-08T16:55:03.406Z,78.78
2022-12-08T16:58:06.586Z,57.60
2022-12-08T17:01:16.844Z,49.00
2022-12-08T17:04:34.928Z,35.78
2022-12-08T17:07:37.424Z,34.00
2022-12-08T17:10:41.231Z,30.10
2022-12-08T17:13:43.601Z,30.25
2022-12-08T17:16:46.366Z,43.58
2022-12-08T17:19:48.878Z,24.70
2022-12-08T17:22:58.320Z,37.25
2022-12-08T17:26:01.545Z,34.25
2022-12-08T17:29:05.095Z,27.33
2022-12-08T17:32:07.586Z,39.72
2022-12-08T17:35:10.805Z,33.78
2022-12-08T17:38:13.065Z,26.37
2022-12-08T17:41:15.297Z,34.45
2022-12-08T17:44:19.742Z,33.80
2022-12-08T17:47:22.426Z,36.33
2022-12-08T17:50:24.716Z,33.10
2022-12-08T17:53:27.082Z,37.40
2022-12-08T17:56:29.388Z,35.70
2022-12-08T17:59:32.044Z,32.85
2022-12-08T18:02:35.719Z,34.47
2022-12-08T18:05:38.187Z,28.92
2022-12-08T18:08:41.053Z,31.20
2022-12-08T18:11:43.776Z,32.42
2022-12-08T18:14:46.583Z,33.88
2022-12-08T18:17:48.914Z,31.30
2022-12-08T18:20:51.336Z,31.58
2022-12-08T18:23:54.024Z,31.67
2022-12-08T18:26:57.849Z,30.42
2022-12-08T18:30:00.634Z,29.50
2022-12-08T18:33:06.218Z,29.48
2022-12-08T18:36:16.811Z,30.52
2022-12-08T18:39:29.312Z,28.35
2022-12-08T18:42:31.946Z,29.48
2022-12-08T18:45:36.867Z,32.45
2022-12-08T18:48:44.586Z,28.58
2022-12-08T18:51:47.497Z,29.83
2022-12-08T18:55:05.695Z,21.27
2022-12-08T18:58:10.992Z,28.05
2022-12-08T19:01:16.767Z,24.58
2022-12-08T19:04:38.455Z,27.17
2022-12-08T19:07:42.827Z,26.52
2022-12-08T19:13:47.582Z,33.38
2022-12-08T19:16:50.717Z,26.67
2022-12-08T19:19:53.075Z,21.53
2022-12-08T19:22:55.579Z,23.88
2022-12-08T19:25:57.958Z,23.55
2022-12-08T19:29:00.352Z,24.65
2022-12-08T19:32:05.186Z,25.95
2022-12-08T19:35:08.021Z,26.42
2022-12-08T19:38:10.362Z,25.13
2022-12-08T19:41:31.405Z,27.60
2022-12-08T19:44:52.294Z,27.13
2022-12-08T19:47:54.638Z,27.70
2022-12-08T19:50:57.417Z,28.38
2022-12-08T19:53:59.693Z,29.13
2022-12-08T19:57:02.296Z,30.85
2022-12-08T20:00:05.250Z,31.90
2022-12-08T20:03:15.522Z,34.70
2022-12-08T20:06:18.879Z,31.88
2022-12-08T20:09:21.621Z,37.80
2022-12-08T20:12:23.942Z,46.28
2022-12-08T20:15:26.278Z,36.90
2022-12-08T20:18:28.904Z,39.80
2022-12-08T20:21:31.338Z,36.97
2022-12-08T20:24:33.699Z,40.00
2022-12-08T20:27:36.019Z,33.75
2022-12-08T20:30:39.601Z,32.80
2022-12-08T20:33:42.000Z,34.60
2022-12-08T20:36:44.907Z,32.15
2022-12-08T20:39:47.270Z,33.60
2022-12-08T20:42:49.633Z,33.13
2022-12-08T20:45:52.035Z,32.17
2022-12-08T20:48:57.904Z,32.17
2022-12-08T20:52:00.221Z,33.13
2022-12-08T20:55:03.013Z,32.20
2022-12-08T20:58:05.523Z,32.90
2022-12-08T21:01:12.393Z,36.08
2022-12-08T21:04:15.066Z,36.47
2022-12-08T21:07:17.814Z,34.92
2022-12-08T21:10:20.382Z,39.72
2022-12-08T21:13:22.782Z,36.67
2022-12-08T21:16:25.581Z,37.38
2022-12-08T21:19:28.019Z,37.00
2022-12-08T21:22:30.920Z,36.28
2022-12-08T21:25:33.336Z,37.03
2022-12-08T21:28:35.841Z,40.70
2022-12-08T21:31:38.690Z,40.13
2022-12-08T21:34:41.298Z,36.60
2022-12-08T21:37:43.841Z,35.08
2022-12-08T21:40:46.320Z,34.45
2022-12-08T21:43:48.758Z,38.67
2022-12-08T21:46:51.301Z,37.00
2022-12-08T21:49:54.811Z,35.95
2022-12-08T21:52:57.423Z,37.17
2022-12-08T21:55:59.825Z,36.70
2022-12-08T21:59:02.181Z,38.00
2022-12-08T22:02:04.524Z,37.15
2022-12-08T22:05:07.490Z,35.50
2022-12-08T22:08:10.157Z,35.33
2022-12-08T22:11:13.316Z,36.10
2022-12-08T22:14:15.900Z,26.45
2022-12-08T22:17:18.732Z,34.30
2022-12-08T22:20:21.614Z,26.53
2022-12-08T22:23:24.358Z,35.70
2022-12-08T22:26:27.044Z,34.47
2022-12-08T22:29:29.773Z,36.78
2022-12-08T22:32:32.744Z,35.63
2022-12-08T22:35:35.391Z,34.47
2022-12-08T22:38:37.896Z,36.25
2022-12-08T22:41:40.620Z,36.22
2022-12-08T22:44:43.193Z,35.45
2022-12-08T22:47:45.560Z,33.95
2022-12-08T22:50:48.170Z,35.03
2022-12-08T22:53:50.981Z,34.58
2022-12-08T22:56:53.504Z,34.72
2022-12-08T22:59:55.913Z,35.00
2022-12-08T23:02:58.298Z,39.00
2022-12-08T23:06:01.483Z,43.17
2022-12-08T23:09:04.292Z,28.88
2022-12-08T23:12:07.026Z,34.47
2022-12-08T23:15:10.062Z,31.50
2022-12-08T23:18:19.115Z,31.23
2022-12-08T23:21:22.333Z,32.83
2022-12-08T23:24:24.679Z,32.60
2022-12-08T23:27:26.941Z,34.33
2022-12-08T23:30:29.482Z,34.78
2022-12-08T23:33:32.172Z,35.22
2022-12-08T23:36:34.783Z,36.42
2022-12-08T23:39:37.401Z,38.50
2022-12-08T23:42:40.177Z,40.83
2022-12-08T23:45:42.918Z,43.13
2022-12-08T23:48:45.606Z,34.80
2022-12-08T23:51:48.222Z,35.55
2022-12-08T23:54:51.220Z,38.13
2022-12-08T23:57:53.576Z,40.53
